Terminal Aerodrome Forecast
Issued by NWS

Home | Current Version | Previous Version | Text Only | Print | Product List | Glossary On
Versions: 1 2 3 4 5 6 7 8 9 10 11 12 13 14 15 16 17 18 19 20 21 22 23 24 25 26 27
000
FTUS41 KBOX 251744
TAFBAF
TAF
KBAF 251744Z 2518/2618 20010G16KT P6SM BKN050
     FM251930 20012G22KT 4SM TSRA OVC050CB
     FM252100 23005KT P6SM VCSH BKN050
     FM260000 23007KT 4SM TSRA OVC045CB
     FM260200 25004KT P6SM BKN250
     FM260500 VRB03KT 3SM BR FEW250
     FM261200 29005KT P6SM SKC
     FM261700 30009KT P6SM SKC=

USA.gov is the U.S. government's official web portal to all federal, state and local government web resources and services.